createdAt,value
2022-08-31T00:01:34.698Z,75.70
2022-08-31T00:06:42.321Z,75.50
2022-08-31T00:11:45.980Z,75.90
2022-08-31T00:16:49.795Z,76.20
2022-08-31T00:21:54.935Z,76.40
2022-08-31T00:27:03.216Z,77.20
2022-08-31T00:32:07.292Z,77.50
2022-08-31T00:37:12.701Z,77.50
2022-08-31T00:42:16.740Z,78.30
2022-08-31T00:47:20.481Z,78.20
2022-08-31T00:52:28.837Z,78.50
2022-08-31T00:57:40.318Z,78.90
2022-08-31T01:02:45.596Z,79.00
2022-08-31T01:07:53.383Z,79.20
2022-08-31T01:12:59.792Z,79.00
2022-08-31T01:18:12.293Z,80.20
2022-08-31T01:23:21.452Z,80.00
2022-08-31T01:28:25.939Z,80.30
2022-08-31T01:33:31.115Z,80.20
2022-08-31T01:38:37.053Z,80.60
2022-08-31T01:43:40.801Z,81.10
2022-08-31T01:48:46.247Z,81.10
2022-08-31T01:53:53.801Z,81.30
2022-08-31T01:58:58.733Z,81.60
2022-08-31T02:04:23.840Z,82.00
2022-08-31T02:09:33.177Z,82.10
2022-08-31T02:14:36.859Z,82.20
2022-08-31T02:19:40.660Z,82.90
2022-08-31T02:24:45.632Z,82.90
2022-08-31T02:29:50.640Z,82.80
2022-08-31T02:34:54.938Z,83.50
2022-08-31T02:40:00.139Z,84.10
2022-08-31T02:45:04.304Z,84.20
2022-08-31T02:50:09.505Z,84.60
2022-08-31T02:55:15.218Z,84.60
2022-08-31T03:00:21.116Z,85.20
2022-08-31T03:05:25.530Z,84.90
2022-08-31T03:10:30.860Z,85.00
2022-08-31T03:15:34.594Z,85.20
2022-08-31T03:20:40.704Z,85.30
2022-08-31T03:25:45.762Z,85.70
2022-08-31T03:30:50.038Z,85.60
2022-08-31T03:35:53.944Z,85.70
2022-08-31T03:40:59.093Z,85.50
2022-08-31T03:46:04.691Z,85.80
2022-08-31T03:51:16.224Z,86.10
2022-08-31T03:56:21.838Z,86.00
2022-08-31T04:01:27.104Z,86.30
2022-08-31T04:06:51.091Z,86.30
2022-08-31T04:12:25.211Z,86.40
2022-08-31T04:17:52.213Z,86.60
2022-08-31T04:23:24.362Z,86.30
2022-08-31T04:28:31.134Z,86.20
2022-08-31T04:33:34.980Z,86.10
2022-08-31T04:38:40.641Z,86.30
2022-08-31T04:43:49.136Z,86.30
2022-08-31T04:48:53.408Z,86.20
2022-08-31T04:53:57.999Z,87.20
2022-08-31T04:59:05.487Z,86.20
2022-08-31T05:04:16.102Z,86.20
2022-08-31T05:09:22.640Z,86.10
2022-08-31T05:14:30.049Z,85.80
2022-08-31T05:19:41.359Z,85.50
2022-08-31T05:24:45.411Z,85.40
2022-08-31T05:29:51.267Z,85.90
2022-08-31T05:35:14.229Z,84.70
2022-08-31T05:40:20.574Z,84.70
2022-08-31T05:45:25.826Z,84.60
2022-08-31T05:50:29.694Z,84.40
2022-08-31T05:55:33.680Z,84.30
2022-08-31T06:00:39.400Z,84.40
2022-08-31T06:06:09.776Z,84.20
2022-08-31T06:11:19.302Z,84.10
2022-08-31T06:16:25.340Z,84.00
2022-08-31T06:21:32.090Z,83.90
2022-08-31T06:26:37.149Z,83.90
2022-08-31T06:31:47.850Z,83.80
2022-08-31T06:36:55.063Z,83.60
2022-08-31T06:42:19.193Z,83.60
2022-08-31T06:47:33.769Z,83.40
2022-08-31T06:52:39.043Z,83.20
2022-08-31T06:58:09.225Z,83.10
2022-08-31T07:03:33.310Z,83.20
2022-08-31T07:08:39.555Z,82.90
2022-08-31T07:13:44.802Z,82.70
2022-08-31T07:19:04.978Z,82.60
2022-08-31T07:24:27.820Z,82.40
2022-08-31T07:29:40.559Z,82.30
2022-08-31T07:34:59.765Z,82.30
2022-08-31T07:40:25.838Z,82.40
2022-08-31T07:45:33.456Z,82.30
2022-08-31T07:50:47.326Z,82.30
2022-08-31T07:55:56.841Z,82.20
2022-08-31T08:01:14.617Z,82.10
2022-08-31T08:06:22.210Z,82.00
2022-08-31T08:12:01.046Z,82.10
2022-08-31T08:17:22.736Z,82.10
2022-08-31T08:22:51.555Z,82.00
2022-08-31T08:28:35.476Z,82.00
2022-08-31T08:33:34.563Z,82.20
2022-08-31T08:38:43.885Z,82.30
2022-08-31T08:43:53.202Z,82.30
2022-08-31T08:49:01.317Z,82.20
2022-08-31T08:54:15.968Z,82.20
2022-08-31T08:59:20.939Z,82.30
2022-08-31T09:04:54.159Z,82.40
2022-08-31T09:10:25.426Z,82.10
2022-08-31T09:15:57.656Z,81.90
2022-08-31T09:21:07.454Z,81.00
2022-08-31T09:26:17.134Z,80.80
2022-08-31T09:31:40.246Z,79.60
2022-08-31T09:36:44.219Z,78.80
2022-08-31T09:41:50.836Z,77.50
2022-08-31T09:47:00.809Z,76.70
2022-08-31T09:52:19.846Z,75.50
2022-08-31T09:57:50.517Z,72.20
2022-08-31T10:02:59.538Z,70.30
2022-08-31T10:08:17.587Z,70.70
2022-08-31T10:13:39.505Z,70.90
2022-08-31T10:18:52.273Z,69.80
2022-08-31T10:24:07.627Z,71.10
2022-08-31T10:29:23.288Z,70.70
2022-08-31T10:34:51.253Z,68.40
2022-08-31T10:39:58.441Z,66.70
2022-08-31T10:45:15.158Z,67.80
2022-08-31T10:50:29.053Z,66.50
2022-08-31T10:55:37.483Z,64.00
2022-08-31T11:00:52.628Z,66.00
2022-08-31T11:06:02.144Z,65.10
2022-08-31T11:11:13.098Z,64.50
2022-08-31T11:16:32.832Z,65.50
2022-08-31T11:22:12.994Z,65.80
2022-08-31T11:27:24.600Z,65.40
2022-08-31T11:32:35.518Z,65.70
2022-08-31T11:37:52.371Z,66.40
2022-08-31T11:42:57.823Z,65.60
2022-08-31T11:48:03.016Z,65.50
2022-08-31T11:53:27.149Z,65.40
2022-08-31T11:58:34.656Z,65.50
2022-08-31T12:03:50.802Z,65.20
2022-08-31T12:09:10.087Z,65.20
2022-08-31T12:14:24.328Z,65.30
2022-08-31T12:20:02.464Z,65.30
2022-08-31T12:25:17.746Z,65.30
2022-08-31T12:30:25.090Z,65.00
2022-08-31T12:35:31.849Z,64.80
2022-08-31T12:40:37.382Z,65.70
2022-08-31T12:46:34.397Z,64.60
2022-08-31T12:51:46.376Z,64.40
2022-08-31T12:56:58.400Z,64.30
2022-08-31T13:02:02.866Z,64.00
2022-08-31T13:07:23.054Z,64.00
2022-08-31T13:12:27.918Z,63.60
2022-08-31T13:17:38.050Z,63.90
2022-08-31T13:22:49.128Z,63.50
2022-08-31T13:27:54.396Z,63.30
2022-08-31T13:33:11.833Z,63.00
2022-08-31T13:38:36.967Z,62.90
2022-08-31T13:44:02.640Z,62.90
2022-08-31T13:49:24.497Z,62.80
2022-08-31T13:54:42.878Z,62.60
2022-08-31T13:59:48.186Z,62.60
2022-08-31T14:05:01.417Z,62.90
2022-08-31T14:10:22.353Z,62.70
2022-08-31T14:15:40.176Z,63.10
2022-08-31T14:21:19.078Z,63.10
2022-08-31T14:26:21.627Z,63.00
2022-08-31T14:31:31.506Z,63.70
2022-08-31T14:36:53.509Z,63.10
2022-08-31T14:42:11.174Z,62.80
2022-08-31T14:47:23.169Z,63.20
2022-08-31T14:52:29.576Z,63.20
2022-08-31T14:57:41.929Z,63.20
2022-08-31T15:02:53.900Z,63.30
2022-08-31T15:08:00.130Z,63.40
2022-08-31T15:13:09.058Z,63.30
2022-08-31T15:18:14.580Z,63.20
2022-08-31T15:23:18.543Z,63.20
2022-08-31T15:28:23.933Z,63.30
2022-08-31T15:33:29.125Z,63.30
2022-08-31T15:38:32.853Z,63.30
2022-08-31T15:43:38.740Z,63.20
2022-08-31T15:48:46.169Z,63.40
2022-08-31T15:54:11.614Z,63.30
2022-08-31T15:59:17.881Z,63.00
2022-08-31T16:04:24.286Z,63.00
2022-08-31T16:09:27.857Z,63.00
2022-08-31T16:14:33.512Z,62.90
2022-08-31T16:19:37.712Z,63.10
2022-08-31T16:24:42.400Z,63.00
2022-08-31T16:29:50.755Z,63.10
2022-08-31T16:34:56.539Z,63.20
2022-08-31T16:40:00.398Z,63.00
2022-08-31T16:45:06.719Z,63.10
2022-08-31T16:50:11.034Z,63.20
2022-08-31T16:55:14.959Z,63.10
2022-08-31T17:00:20.654Z,62.60
2022-08-31T17:05:32.800Z,62.70
2022-08-31T17:10:36.544Z,62.90
2022-08-31T17:15:43.207Z,62.50
2022-08-31T17:20:48.031Z,62.60
2022-08-31T17:25:52.138Z,62.40
2022-08-31T17:31:00.299Z,62.50
2022-08-31T17:36:06.816Z,62.40
2022-08-31T17:41:12.209Z,62.40
2022-08-31T17:46:17.323Z,62.50
2022-08-31T17:51:27.314Z,62.70
2022-08-31T17:56:34.789Z,62.70
2022-08-31T18:01:39.902Z,62.80
2022-08-31T18:06:44.927Z,62.90
2022-08-31T18:11:49.706Z,62.90
2022-08-31T18:16:56.741Z,62.70
2022-08-31T18:22:00.895Z,63.00
2022-08-31T18:27:07.152Z,63.10
2022-08-31T18:32:12.638Z,63.20
2022-08-31T18:37:22.172Z,63.50
2022-08-31T18:42:43.488Z,63.40
2022-08-31T18:48:26.518Z,63.20
2022-08-31T18:53:34.575Z,63.40
2022-08-31T18:58:39.013Z,63.40
2022-08-31T19:03:45.550Z,63.70
2022-08-31T19:09:23.567Z,64.40
2022-08-31T19:15:00.879Z,63.70
2022-08-31T19:20:10.232Z,63.80
2022-08-31T19:25:18.265Z,63.90
2022-08-31T19:30:27.824Z,63.80
2022-08-31T19:35:33.320Z,64.00
2022-08-31T19:40:58.463Z,63.90
2022-08-31T19:46:13.701Z,64.00
2022-08-31T19:51:21.533Z,64.00
2022-08-31T19:56:31.044Z,64.10
2022-08-31T20:01:35.712Z,64.10
2022-08-31T20:06:45.305Z,64.20
2022-08-31T20:11:50.440Z,64.10
2022-08-31T20:16:57.774Z,64.00
2022-08-31T20:22:08.583Z,63.80
2022-08-31T20:27:39.077Z,63.90
2022-08-31T20:33:29.524Z,63.70
2022-08-31T20:38:41.286Z,63.90
2022-08-31T20:43:45.192Z,63.90
2022-08-31T20:49:06.783Z,63.90
2022-08-31T20:54:15.392Z,63.70
2022-08-31T20:59:39.735Z,63.90
2022-08-31T21:04:49.578Z,63.90
2022-08-31T21:10:01.519Z,63.70
2022-08-31T21:15:13.126Z,63.70
2022-08-31T21:20:22.406Z,63.80
2022-08-31T21:25:32.726Z,63.90
2022-08-31T21:30:38.809Z,63.80
2022-08-31T21:35:46.576Z,63.70
2022-08-31T21:40:59.657Z,63.70
2022-08-31T21:46:10.016Z,63.70
2022-08-31T21:51:19.337Z,63.80
2022-08-31T21:56:55.458Z,63.80
2022-08-31T22:02:07.187Z,63.80
2022-08-31T22:07:14.542Z,63.80
2022-08-31T22:12:36.237Z,63.80
2022-08-31T22:18:02.036Z,63.40
2022-08-31T22:23:09.117Z,63.70
2022-08-31T22:28:15.047Z,63.70
2022-08-31T22:33:22.461Z,63.60
2022-08-31T22:38:48.128Z,63.70
2022-08-31T22:43:57.600Z,63.80
2022-08-31T22:49:01.870Z,63.80
2022-08-31T22:54:36.587Z,63.80
2022-08-31T23:05:47.453Z,63.90
2022-08-31T23:10:53.730Z,63.70
2022-08-31T23:15:59.738Z,63.90
2022-08-31T23:21:16.396Z,63.90
2022-08-31T23:26:21.150Z,63.80
2022-08-31T23:31:27.985Z,63.60
2022-08-31T23:36:31.869Z,63.50
2022-08-31T23:41:37.780Z,63.80
2022-08-31T23:46:44.346Z,63.40
2022-08-31T23:51:49.194Z,63.70
2022-08-31T23:56:57.992Z,63.80
